A- A+ FrançaisEnglishEspañol中国

最近的 LFBT Tarbes-Lourdes-PyrénéesSBSJ Sao Jose Dos CamposMGGT GuatemalaVOMD MaduraiVOTR TiruchirappalliSAME Mendoza El Plumerillo

飞行员的航空天气,使用METAR(气象机场报告)进行的飞行准备和TAF(终端机场预报:针对以下情况的短期天气预报)航空)。 以及其他资源,例如VAC(目视进近图)和NOTAM(通知飞行员)以进行预试飞行.

METAR, TAF, VAC, NOTAM Golden机场 (加拿大) / OACI CYGE

它位于附近 Golden, Golden 在 0.9 km, Leanchoil 在 27 km, Parson 在 35 km, Field 在 36 km, Glacier 在 38 km, Lake Louise 在 50 km, Spillimacheen 在 62 km, Eldon 在 66 km, Castle Mountain 在 74 km, Revelstoke 在 92 km,

机场的高度为 Golden机场的

785 m = 2575 ft

跑道 Golden机场的

附近的机场Golden机场的

目前的天气 Golden机场的 - CYGE

ciel couvert
11°C

Vent 24 km/h
+ rafales à 37km/h

可提供5天天气预报 Golden 在 0.9 km, Leanchoil 在 27 km, Parson 在 35 km, Field 在 36 km, Glacier 在 38 km, Lake Louise 在 50 km, Spillimacheen 在 62 km, Eldon 在 66 km, Castle Mountain 在 74 km, Revelstoke 在 92 km,

METAR Golden机场的 - CYGE

CYGE 101600Z 15013G20KT 110V210 10SM -RA FEW020 SCT035 SCT045 OVC070 11/09 A2936 RMK SC2SC1SC1AC4 SLP949 DENSITY ALT 3400FT

Golden机场METAR解码 (加拿大)

CYGE机场发行的METAR日期2020年10月10日至16:00 GMT, 警告:此METAR已过期, 已于 50 天 21 小时 50 分钟.

可见度为16.1 km = 10 sm.

温度为11°C = 52 °F 露点为9°C = 48 °F 。 这相当于87%的相对湿度。.

QNH是994 hPa = 29.35 inHg

的风13 kt = 24 km/h 阵风在20 kt = 37 km/h, 风向为150°.

云:处少云2000 ft = 610 m. 距离3500 ft = 1070 m. 距离4500 ft = 1370 m. 多云7000 ft = 2130 m.

备注 SC2SC1SC1AC4 SLP949 DENSITY ALT 3400FT

TAF Golden机场的 - CYGE

没有TAF

Golden机场的NOTAM

提供的NOTAM不能保证其时事性。 在将其用于飞行准备或在飞行期间使用之前,飞行员是唯一负责验证其有效性的人员。

没有通知

数据源